Nautic — A8HQ3 — position and weather

sailwx.info

Track history (hours):
 
Tides and Currents Weather Stations Pressure Air Temp Water Temp Dewpoint Dewpoint Depression Visibility Wind Speed Wind Dir Waves Ship Positions

Nautic

Last reported at 2015-Jan-20 09:06 UTC. Time now 2015-Jan-30 10:58 UTC.
Position N 35°49' E 014°51'.
Warning: this ship's position is 10 days out of date.

Length 274 m; draft 16 m.

Type: Tanker. MMSI: 636012754.

Date/timePositionNaut miles runAvg speedWind from/ knotsBaromVisibWave heightAir tempDewpointWater temp
2015-Jan-20 09:06N 35°49' E 014°51'0 0.0
2015-Jan-20 08:33N 35°49' E 014°51'  
2015-Jan-17 23:30N 35°49' E 014°51'0 0.0
2015-Jan-17 22:33N 35°49' E 014°51'0 0.0
2015-Jan-17 09:33N 35°49' E 014°51'0 0.0
2015-Jan-17 08:06N 35°49' E 014°51'0 0.0
2015-Jan-17 06:33N 35°49' E 014°51'0 0.0
2015-Jan-17 05:33N 35°49' E 014°51'0 0.0
2015-Jan-17 04:30N 35°49' E 014°51'0 0.0
2015-Jan-17 03:33N 35°49' E 014°51'0 0.0
2015-Jan-17 02:33N 35°49' E 014°51'0 0.0
2015-Jan-17 01:18N 35°49' E 014°51'0 0.0
2015-Jan-17 00:30N 35°49' E 014°51'0 0.1
2015-Jan-16 23:33N 35°49' E 014°51'0 0.1
2015-Jan-16 22:33N 35°49' E 014°51'0 0.1
2015-Jan-16 21:33N 35°49' E 014°51'0 0.1
2015-Jan-16 20:27N 35°49' E 014°51'0 0.0
2015-Jan-16 18:12N 35°49' E 014°51'0 0.0
2015-Jan-16 07:30N 35°49' E 014°51'0 0.1
2015-Jan-16 06:33N 35°49' E 014°51'0 0.1
2015-Jan-16 05:33N 35°49' E 014°51'0 0.0
2015-Jan-16 04:33N 35°49' E 014°51'0 0.0
2015-Jan-16 03:27N 35°49' E 014°51'0 0.0
2015-Jan-16 02:33N 35°49' E 014°51'0 0.0
2015-Jan-16 01:33N 35°49' E 014°51'0 0.0
2015-Jan-16 00:30N 35°49' E 014°51'0 0.0
2015-Jan-15 23:27N 35°49' E 014°51'6 2.2
2015-Jan-15 20:28N 35°52' E 014°44'4 4.2
2015-Jan-15 19:33N 35°56' E 014°44'5 5.3
2015-Jan-15 18:33N 36°01' E 014°45'6 4.1
2015-Jan-15 17:08N 36°04' E 014°51'3 4.0
2015-Jan-15 16:30N 36°04' E 014°48'16 1.6
2015-Jan-15 06:33N 35°48' E 014°51'0 0.0
2015-Jan-15 05:33N 35°48' E 014°51'0 0.0
2015-Jan-15 04:33N 35°48' E 014°51'0 0.0
2015-Jan-15 03:33N 35°48' E 014°51'0 0.0
2015-Jan-15 02:33N 35°48' E 014°51'0 0.0
2015-Jan-15 01:33N 35°48' E 014°51'0 0.0
2015-Jan-15 00:30N 35°48' E 014°51'0 0.0
2015-Jan-14 23:30N 35°48' E 014°51'0 0.0
2015-Jan-14 22:24N 35°48' E 014°51'0 0.0
2015-Jan-14 21:30N 35°48' E 014°51'0 0.0
2015-Jan-14 19:09N 35°48' E 014°51'0 0.0
2015-Jan-14 17:09N 35°48' E 014°51'0 0.0
2015-Jan-14 16:12N 35°48' E 014°51'0 0.0
2015-Jan-14 15:09N 35°48' E 014°51'0 0.0
2015-Jan-14 14:27N 35°48' E 014°51'0 0.0
2015-Jan-14 13:30N 35°48' E 014°51'0 0.0
2015-Jan-14 12:33N 35°48' E 014°51'0 0.0
2015-Jan-14 11:24N 35°48' E 014°51'0 0.1
2015-Jan-14 10:21N 35°48' E 014°51'0 0.0
2015-Jan-14 09:33N 35°48' E 014°51'0 0.0
2015-Jan-14 08:33N 35°48' E 014°51'0 0.0
2015-Jan-14 07:33N 35°48' E 014°51'0 0.0
2015-Jan-14 06:15N 35°48' E 014°51'0 0.0
2015-Jan-14 05:33N 35°48' E 014°51'0 0.0
2015-Jan-14 04:33N 35°48' E 014°51'0 0.0
2015-Jan-14 03:33N 35°48' E 014°51'0 0.0
2015-Jan-14 02:27N 35°48' E 014°51'0 0.0
2015-Jan-14 01:24N 35°48' E 014°51'0 0.0
2015-Jan-14 00:12N 35°48' E 014°51'0 0.0
2015-Jan-13 23:30N 35°48' E 014°51'0 0.0
2015-Jan-13 22:33N 35°48' E 014°51'0 0.0
2015-Jan-13 21:33N 35°48' E 014°51'0 0.0
2015-Jan-13 20:33N 35°48' E 014°51'0 0.0
2015-Jan-13 19:33N 35°48' E 014°51'0 0.0
2015-Jan-11 17:09N 35°48' E 014°51'0 0.0
2015-Jan-11 16:33N 35°48' E 014°51'0 0.0
2015-Jan-11 15:33N 35°48' E 014°51'0 0.0
2015-Jan-11 07:33N 35°48' E 014°51'  
Track history (hours):
 
Tides and Currents Weather Stations Pressure Air Temp Water Temp Dewpoint Dewpoint Depression Visibility Wind Speed Wind Dir Waves Ship Positions

Nautic

Last reported at 2015-Jan-20 09:06 UTC. Time now 2015-Jan-30 10:58 UTC.
Position N 35°49' E 014°51'.
Warning: this ship's position is 10 days out of date.

Length 274 m; draft 16 m.

Type: Tanker. MMSI: 636012754.

Date/timePositionNaut miles runAvg speedWind from/ knotsBaromVisibWave heightAir tempDewpointWater temp
2015-Jan-20 09:06N 35°49' E 014°51'0 0.0
2015-Jan-20 08:33N 35°49' E 014°51'  
2015-Jan-17 23:30N 35°49' E 014°51'0 0.0
2015-Jan-17 22:33N 35°49' E 014°51'0 0.0
2015-Jan-17 09:33N 35°49' E 014°51'0 0.0
2015-Jan-17 08:06N 35°49' E 014°51'0 0.0
2015-Jan-17 06:33N 35°49' E 014°51'0 0.0
2015-Jan-17 05:33N 35°49' E 014°51'0 0.0
2015-Jan-17 04:30N 35°49' E 014°51'0 0.0
2015-Jan-17 03:33N 35°49' E 014°51'0 0.0
2015-Jan-17 02:33N 35°49' E 014°51'0 0.0
2015-Jan-17 01:18N 35°49' E 014°51'0 0.0
2015-Jan-17 00:30N 35°49' E 014°51'0 0.1
2015-Jan-16 23:33N 35°49' E 014°51'0 0.1
2015-Jan-16 22:33N 35°49' E 014°51'0 0.1
2015-Jan-16 21:33N 35°49' E 014°51'0 0.1
2015-Jan-16 20:27N 35°49' E 014°51'0 0.0
2015-Jan-16 18:12N 35°49' E 014°51'0 0.0
2015-Jan-16 07:30N 35°49' E 014°51'0 0.1
2015-Jan-16 06:33N 35°49' E 014°51'0 0.1
2015-Jan-16 05:33N 35°49' E 014°51'0 0.0
2015-Jan-16 04:33N 35°49' E 014°51'0 0.0
2015-Jan-16 03:27N 35°49' E 014°51'0 0.0
2015-Jan-16 02:33N 35°49' E 014°51'0 0.0
2015-Jan-16 01:33N 35°49' E 014°51'0 0.0
2015-Jan-16 00:30N 35°49' E 014°51'0 0.0
2015-Jan-15 23:27N 35°49' E 014°51'6 2.2
2015-Jan-15 20:28N 35°52' E 014°44'4 4.2
2015-Jan-15 19:33N 35°56' E 014°44'5 5.3
2015-Jan-15 18:33N 36°01' E 014°45'6 4.1
2015-Jan-15 17:08N 36°04' E 014°51'3 4.0
2015-Jan-15 16:30N 36°04' E 014°48'16 1.6
2015-Jan-15 06:33N 35°48' E 014°51'0 0.0
2015-Jan-15 05:33N 35°48' E 014°51'0 0.0
2015-Jan-15 04:33N 35°48' E 014°51'0 0.0
2015-Jan-15 03:33N 35°48' E 014°51'0 0.0
2015-Jan-15 02:33N 35°48' E 014°51'0 0.0
2015-Jan-15 01:33N 35°48' E 014°51'0 0.0
2015-Jan-15 00:30N 35°48' E 014°51'0 0.0
2015-Jan-14 23:30N 35°48' E 014°51'0 0.0
2015-Jan-14 22:24N 35°48' E 014°51'0 0.0
2015-Jan-14 21:30N 35°48' E 014°51'0 0.0
2015-Jan-14 19:09N 35°48' E 014°51'0 0.0
2015-Jan-14 17:09N 35°48' E 014°51'0 0.0
2015-Jan-14 16:12N 35°48' E 014°51'0 0.0
2015-Jan-14 15:09N 35°48' E 014°51'0 0.0
2015-Jan-14 14:27N 35°48' E 014°51'0 0.0
2015-Jan-14 13:30N 35°48' E 014°51'0 0.0
2015-Jan-14 12:33N 35°48' E 014°51'0 0.0
2015-Jan-14 11:24N 35°48' E 014°51'0 0.1
2015-Jan-14 10:21N 35°48' E 014°51'0 0.0
2015-Jan-14 09:33N 35°48' E 014°51'0 0.0
2015-Jan-14 08:33N 35°48' E 014°51'0 0.0
2015-Jan-14 07:33N 35°48' E 014°51'0 0.0
2015-Jan-14 06:15N 35°48' E 014°51'0 0.0
2015-Jan-14 05:33N 35°48' E 014°51'0 0.0
2015-Jan-14 04:33N 35°48' E 014°51'0 0.0
2015-Jan-14 03:33N 35°48' E 014°51'0 0.0
2015-Jan-14 02:27N 35°48' E 014°51'0 0.0
2015-Jan-14 01:24N 35°48' E 014°51'0 0.0
2015-Jan-14 00:12N 35°48' E 014°51'0 0.0
2015-Jan-13 23:30N 35°48' E 014°51'0 0.0
2015-Jan-13 22:33N 35°48' E 014°51'0 0.0
2015-Jan-13 21:33N 35°48' E 014°51'0 0.0
2015-Jan-13 20:33N 35°48' E 014°51'0 0.0
2015-Jan-13 19:33N 35°48' E 014°51'0 0.0
2015-Jan-11 17:09N 35°48' E 014°51'0 0.0
2015-Jan-11 16:33N 35°48' E 014°51'0 0.0
2015-Jan-11 15:33N 35°48' E 014°51'0 0.0
2015-Jan-11 07:33N 35°48' E 014°51'  

Dump ship's entire track history